Time;durP1;ratioP1;P1;durP2;ratioP2;P2;SDS_P1;SDS_P2;PMS_P1;PMS_P2;Temp;Humidity;BMP_temperature;BMP_pressure;BME280_temperature;BME280_humidity;BME280_pressure;Samples;Min_cycle;Max_cycle;Signal;HPM_P1;HPM_P2
2022/06/23 00:00:04;;;;;;;3.00;2.50;;;;;;;;;;6210253;23;20209;-57
2022/06/23 00:02:31;;;;;;;4.30;2.88;;;;;;;;;;6203748;23;20016;-55
2022/06/23 00:04:58;;;;;;;4.95;2.60;;;;;;;;;;6208294;23;20013;-57
2022/06/23 00:07:24;;;;;;;4.13;2.55;;;;;;;;;;6204615;23;20055;-57
2022/06/23 00:09:51;;;;;;;6.95;3.22;;;;;;;;;;6206949;23;20004;-57
2022/06/23 00:12:22;;;;;;;4.15;2.75;;;;;;;;;;6203098;23;20012;-55
2022/06/23 00:14:56;;;;;;;8.05;3.65;;;;;;;;;;6207986;23;20021;-55
2022/06/23 00:17:23;;;;;;;8.40;4.90;;;;;;;;;;6209396;23;20028;-56
2022/06/23 00:19:49;;;;;;;14.10;6.60;;;;;;;;;;6203014;23;20016;-56
2022/06/23 00:22:15;;;;;;;12.20;5.90;;;;;;;;;;6208271;23;20072;-56
2022/06/23 00:24:41;;;;;;;5.47;3.70;;;;;;;;;;6203492;23;20036;-57
2022/06/23 00:27:12;;;;;;;5.47;4.13;;;;;;;;;;6181174;23;20017;-55
2022/06/23 00:29:37;;;;;;;5.15;3.38;;;;;;;;;;6202984;23;20015;-56
2022/06/23 00:32:04;;;;;;;6.28;3.47;;;;;;;;;;6212478;23;20012;-56
2022/06/23 00:34:37;;;;;;;10.75;3.47;;;;;;;;;;6206182;23;20039;-57
2022/06/23 00:37:07;;;;;;;5.40;3.05;;;;;;;;;;6211218;23;20020;-57
2022/06/23 00:39:37;;;;;;;4.47;2.95;;;;;;;;;;6204047;23;20150;-56
2022/06/23 00:42:05;;;;;;;4.63;2.67;;;;;;;;;;6210726;23;20040;-56
2022/06/23 00:44:52;;;;;;;4.05;2.58;;;;;;;;;;6207618;23;20017;-56
2022/06/23 00:47:20;;;;;;;4.63;3.17;;;;;;;;;;6202870;23;20012;-55
2022/06/23 00:49:51;;;;;;;4.47;2.75;;;;;;;;;;6208861;23;20080;-56
2022/06/23 00:52:20;;;;;;;4.70;3.17;;;;;;;;;;6207407;23;20489;-56
2022/06/23 00:54:48;;;;;;;5.90;3.67;;;;;;;;;;6206397;23;20032;-56
2022/06/23 00:57:13;;;;;;;5.28;3.05;;;;;;;;;;6203855;23;20277;-55
2022/06/23 00:59:44;;;;;;;5.53;3.35;;;;;;;;;;6209236;23;20005;-56
2022/06/23 01:02:17;;;;;;;5.07;3.47;;;;;;;;;;6209142;23;20233;-57
2022/06/23 01:04:50;;;;;;;7.68;2.95;;;;;;;;;;6208308;23;20023;-57
2022/06/23 01:07:34;;;;;;;8.48;3.33;;;;;;;;;;6201117;23;20051;-56
2022/06/23 01:10:05;;;;;;;5.30;3.20;;;;;;;;;;6208929;23;20021;-55
2022/06/23 01:12:37;;;;;;;5.40;3.75;;;;;;;;;;6208851;23;20054;-56
2022/06/23 01:15:20;;;;;;;4.05;2.97;;;;;;;;;;6205576;23;20020;-54
2022/06/23 01:18:00;;;;;;;4.97;3.30;;;;;;;;;;6210275;23;20028;-56
2022/06/23 01:20:32;;;;;;;3.85;3.20;;;;;;;;;;6205643;23;20020;-56
2022/06/23 01:23:06;;;;;;;6.25;3.15;;;;;;;;;;6210157;23;20017;-55
2022/06/23 01:25:47;;;;;;;5.55;3.13;;;;;;;;;;6205836;23;20062;-56
2022/06/23 01:28:17;;;;;;;4.95;3.25;;;;;;;;;;6206079;23;20399;-56
2022/06/23 01:31:01;;;;;;;3.38;3.08;;;;;;;;;;6209601;23;20017;-56
2022/06/23 01:33:39;;;;;;;3.10;2.47;;;;;;;;;;6178662;23;20635;-55
2022/06/23 01:36:24;;;;;;;5.70;3.17;;;;;;;;;;6211350;23;20539;-57
2022/06/23 01:38:53;;;;;;;5.75;3.47;;;;;;;;;;6181822;23;20016;-56
2022/06/23 01:41:24;;;;;;;6.35;3.50;;;;;;;;;;6205332;23;20016;-55
2022/06/23 01:43:58;;;;;;;5.03;3.35;;;;;;;;;;6212380;23;20096;-57
2022/06/23 01:46:26;;;;;;;5.53;3.45;;;;;;;;;;6204183;23;20013;-56
2022/06/23 01:48:56;;;;;;;4.43;2.97;;;;;;;;;;6209442;23;20319;-56
2022/06/23 01:51:32;;;;;;;6.43;3.47;;;;;;;;;;6205864;23;20012;-56
2022/06/23 01:54:13;;;;;;;5.05;3.55;;;;;;;;;;6209906;23;20016;-56
2022/06/23 01:56:57;;;;;;;4.40;3.15;;;;;;;;;;6205023;23;20020;-56
2022/06/23 01:59:41;;;;;;;4.00;3.30;;;;;;;;;;6202288;23;20020;-54
2022/06/23 02:02:25;;;;;;;4.07;3.15;;;;;;;;;;6200604;23;20061;-54
2022/06/23 02:05:09;;;;;;;4.13;3.60;;;;;;;;;;6207137;23;20471;-56
2022/06/23 02:07:40;;;;;;;4.32;3.60;;;;;;;;;;6204493;23;20016;-55
2022/06/23 02:10:12;;;;;;;6.50;3.70;;;;;;;;;;6210304;23;20020;-55
2022/06/23 02:12:44;;;;;;;5.30;3.80;;;;;;;;;;6202550;23;20016;-56
2022/06/23 02:15:15;;;;;;;4.95;2.80;;;;;;;;;;6208577;23;20017;-57
2022/06/23 02:17:48;;;;;;;4.57;4.03;;;;;;;;;;6205523;23;20052;-57
2022/06/23 02:20:18;;;;;;;4.03;3.42;;;;;;;;;;6204669;23;20443;-57
2022/06/23 02:22:45;;;;;;;6.38;4.15;;;;;;;;;;6206780;23;20016;-57
2022/06/23 02:25:10;;;;;;;6.43;2.97;;;;;;;;;;6209004;23;20039;-52
2022/06/23 02:27:44;;;;;;;5.13;3.70;;;;;;;;;;6203809;23;20009;-55
2022/06/23 02:30:25;;;;;;;5.18;3.38;;;;;;;;;;6206177;23;20238;-56
2022/06/23 02:32:58;;;;;;;4.93;3.90;;;;;;;;;;6204443;23;20017;-56
2022/06/23 02:35:26;;;;;;;4.82;3.85;;;;;;;;;;6208772;23;20071;-57
2022/06/23 02:37:51;;;;;;;6.25;3.50;;;;;;;;;;6204698;23;20016;-56
2022/06/23 02:40:23;;;;;;;5.22;3.90;;;;;;;;;;6170854;23;20405;-55
2022/06/23 02:42:54;;;;;;;4.97;4.05;;;;;;;;;;6209897;23;20024;-56
2022/06/23 02:45:29;;;;;;;6.07;3.60;;;;;;;;;;6202254;23;20055;-57
2022/06/23 02:48:20;;;;;;;6.45;4.20;;;;;;;;;;6199618;23;20009;-57
2022/06/23 02:51:01;;;;;;;10.65;4.15;;;;;;;;;;6199593;23;20027;-57
2022/06/23 02:53:29;;;;;;;7.32;4.75;;;;;;;;;;6209127;23;20036;-55
2022/06/23 02:56:04;;;;;;;5.57;4.32;;;;;;;;;;6204384;23;20021;-57
2022/06/23 02:58:35;;;;;;;5.68;4.07;;;;;;;;;;6198026;23;20023;-56
2022/06/23 03:01:08;;;;;;;5.40;4.50;;;;;;;;;;6207341;23;20013;-57
2022/06/23 03:03:36;;;;;;;5.65;3.60;;;;;;;;;;6206262;23;20016;-55
2022/06/23 03:06:21;;;;;;;5.75;3.80;;;;;;;;;;6208813;23;20095;-56
2022/06/23 03:08:53;;;;;;;6.78;4.10;;;;;;;;;;6204021;23;20016;-56
2022/06/23 03:11:51;;;;;;;7.28;3.90;;;;;;;;;;6207721;23;20016;-57
2022/06/23 03:14:20;;;;;;;5.28;3.72;;;;;;;;;;6202955;23;20032;-56
2022/06/23 03:16:48;;;;;;;7.10;3.63;;;;;;;;;;6209235;23;20048;-57
2022/06/23 03:19:17;;;;;;;5.57;3.90;;;;;;;;;;6205356;23;20011;-57
2022/06/23 03:21:48;;;;;;;5.27;4.30;;;;;;;;;;6207222;23;20013;-56
2022/06/23 03:24:25;;;;;;;5.18;3.70;;;;;;;;;;6201833;23;20848;-57
2022/06/23 03:26:54;;;;;;;6.40;4.18;;;;;;;;;;6207617;23;20012;-56
2022/06/23 03:29:28;;;;;;;6.35;3.60;;;;;;;;;;6203198;23;20024;-55
2022/06/23 03:32:02;;;;;;;6.82;3.97;;;;;;;;;;6208428;23;20052;-57
2022/06/23 03:34:44;;;;;;;7.70;4.00;;;;;;;;;;6206138;23;20017;-54
2022/06/23 03:37:14;;;;;;;8.80;4.45;;;;;;;;;;6205816;23;20358;-56
2022/06/23 03:42:39;;;;;;;5.55;3.70;;;;;;;;;;6202696;23;20069;-56
2022/06/23 03:45:20;;;;;;;7.22;4.70;;;;;;;;;;6206731;23;20024;-56
2022/06/23 03:47:53;;;;;;;7.38;4.35;;;;;;;;;;6203063;23;20024;-56
2022/06/23 03:50:37;;;;;;;6.18;3.88;;;;;;;;;;6207380;23;20035;-55
2022/06/23 03:53:22;;;;;;;9.20;5.78;;;;;;;;;;6204438;23;20505;-56
2022/06/23 03:55:51;;;;;;;6.70;4.85;;;;;;;;;;6206031;23;20023;-56
2022/06/23 03:58:19;;;;;;;4.68;4.28;;;;;;;;;;6204161;23;20012;-57
2022/06/23 04:01:10;;;;;;;7.93;4.82;;;;;;;;;;6206801;23;20036;-54
2022/06/23 04:03:36;;;;;;;6.03;4.30;;;;;;;;;;6147606;23;20020;-55
2022/06/23 04:06:09;;;;;;;9.85;4.57;;;;;;;;;;6181011;23;20385;-56
2022/06/23 04:08:41;;;;;;;11.77;5.22;;;;;;;;;;6208363;23;20063;-55
2022/06/23 04:13:55;;;;;;;9.57;6.55;;;;;;;;;;6208277;23;20020;-57
2022/06/23 04:16:22;;;;;;;20.58;6.28;;;;;;;;;;6209543;23;20058;-56
2022/06/23 04:18:48;;;;;;;7.68;5.28;;;;;;;;;;6205667;23;20013;-57
2022/06/23 04:21:16;;;;;;;14.15;6.55;;;;;;;;;;6210751;23;20013;-57
2022/06/23 04:24:03;;;;;;;8.65;6.03;;;;;;;;;;6208524;23;20088;-56
2022/06/23 04:26:31;;;;;;;7.88;5.78;;;;;;;;;;6206771;23;20017;-56
2022/06/23 04:28:58;;;;;;;8.13;5.43;;;;;;;;;;6208776;23;20017;-56
2022/06/23 04:31:31;;;;;;;11.40;6.55;;;;;;;;;;6181075;23;20013;-56
2022/06/23 04:33:59;;;;;;;9.23;6.60;;;;;;;;;;6210126;23;20079;-55
2022/06/23 04:36:29;;;;;;;10.02;5.50;;;;;;;;;;6209231;23;20059;-56
2022/06/23 04:38:59;;;;;;;10.70;5.45;;;;;;;;;;6205643;23;20394;-56
2022/06/23 04:41:24;;;;;;;9.98;5.72;;;;;;;;;;6209062;23;20013;-57
2022/06/23 04:43:55;;;;;;;9.60;6.17;;;;;;;;;;6207282;23;20067;-55
2022/06/23 04:46:28;;;;;;;10.20;6.13;;;;;;;;;;6210977;23;20230;-56
2022/06/23 04:48:55;;;;;;;6.28;5.57;;;;;;;;;;6204353;23;20105;-55
2022/06/23 04:51:27;;;;;;;9.93;6.32;;;;;;;;;;6183175;23;20044;-57
2022/06/23 04:53:55;;;;;;;12.10;5.80;;;;;;;;;;6207558;23;20043;-56
2022/06/23 04:56:32;;;;;;;12.15;5.97;;;;;;;;;;6211607;23;20080;-54
2022/06/23 04:59:07;;;;;;;12.40;6.95;;;;;;;;;;6205998;23;20447;-56
2022/06/23 05:01:38;;;;;;;10.98;6.40;;;;;;;;;;6209699;23;20027;-56
2022/06/23 05:04:04;;;;;;;10.05;6.63;;;;;;;;;;6206397;23;20018;-56
2022/06/23 05:06:36;;;;;;;10.57;6.75;;;;;;;;;;6208904;23;20005;-55
2022/06/23 05:09:05;;;;;;;8.88;6.00;;;;;;;;;;6208345;23;20732;-56
2022/06/23 05:11:35;;;;;;;10.05;6.22;;;;;;;;;;6209130;23;20013;-57
2022/06/23 05:14:02;;;;;;;8.38;6.70;;;;;;;;;;6208589;23;20024;-56
2022/06/23 05:16:31;;;;;;;13.85;6.57;;;;;;;;;;6206484;23;20076;-55
2022/06/23 05:18:58;;;;;;;8.63;5.80;;;;;;;;;;6208773;23;20013;-56
2022/06/23 05:21:25;;;;;;;12.48;6.90;;;;;;;;;;6205217;23;20012;-56
2022/06/23 05:23:51;;;;;;;11.98;7.13;;;;;;;;;;6202946;23;20360;-57
2022/06/23 05:26:25;;;;;;;9.50;5.90;;;;;;;;;;6209834;23;20035;-56
2022/06/23 05:28:58;;;;;;;10.43;6.65;;;;;;;;;;6209816;23;20238;-55
2022/06/23 05:31:26;;;;;;;8.23;5.82;;;;;;;;;;6203736;23;20009;-56
2022/06/23 05:33:53;;;;;;;9.50;5.47;;;;;;;;;;6206292;23;20027;-55
2022/06/23 05:36:21;;;;;;;12.05;6.10;;;;;;;;;;6207155;23;20020;-57
2022/06/23 05:38:48;;;;;;;13.45;6.47;;;;;;;;;;6207696;23;20600;-55
2022/06/23 05:41:14;;;;;;;11.43;6.38;;;;;;;;;;6202610;23;20024;-55
2022/06/23 05:43:40;;;;;;;7.67;5.93;;;;;;;;;;6208585;23;20020;-56
2022/06/23 05:46:06;;;;;;;9.15;6.50;;;;;;;;;;6179810;23;20230;-57
2022/06/23 05:48:39;;;;;;;10.13;5.93;;;;;;;;;;6181548;23;20028;-57
2022/06/23 05:51:13;;;;;;;8.05;5.68;;;;;;;;;;6206836;23;20005;-57
2022/06/23 05:53:48;;;;;;;13.00;6.55;;;;;;;;;;6200710;23;20032;-56
2022/06/23 05:56:23;;;;;;;11.60;5.57;;;;;;;;;;6210787;23;20036;-55
2022/06/23 05:58:56;;;;;;;8.18;5.57;;;;;;;;;;6204320;23;20013;-56
2022/06/23 06:01:25;;;;;;;10.35;4.70;;;;;;;;;;6209716;23;20039;-56
2022/06/23 06:03:53;;;;;;;9.27;4.80;;;;;;;;;;6204078;23;20032;-56
2022/06/23 06:06:18;;;;;;;5.55;4.18;;;;;;;;;;6209049;23;20101;-54
2022/06/23 06:11:41;;;;;;;6.07;3.03;;;;;;;;;;6205415;23;20085;-56
2022/06/23 06:14:07;;;;;;;7.32;3.45;;;;;;;;;;6209182;23;20021;-55
2022/06/23 06:16:32;;;;;;;4.55;3.13;;;;;;;;;;6203158;23;20067;-57
2022/06/23 06:18:58;;;;;;;5.78;2.50;;;;;;;;;;6208636;23;20019;-56
2022/06/23 06:21:25;;;;;;;4.38;2.65;;;;;;;;;;6203175;23;20017;-56
2022/06/23 06:24:05;;;;;;;4.55;3.15;;;;;;;;;;6208555;23;20008;-56
2022/06/23 06:26:32;;;;;;;6.03;3.38;;;;;;;;;;6203567;23;20017;-56
2022/06/23 06:29:16;;;;;;;7.50;2.70;;;;;;;;;;6207516;23;20021;-55
2022/06/23 06:31:46;;;;;;;5.55;3.42;;;;;;;;;;6203073;23;20059;-57
2022/06/23 06:34:33;;;;;;;4.13;2.67;;;;;;;;;;6207228;23;20067;-57
2022/06/23 06:36:58;;;;;;;5.22;2.67;;;;;;;;;;6207388;23;20530;-56
2022/06/23 06:39:23;;;;;;;6.55;2.72;;;;;;;;;;6199503;23;20012;-57
2022/06/23 06:42:10;;;;;;;4.30;2.65;;;;;;;;;;6208164;23;20054;-56
2022/06/23 06:44:37;;;;;;;5.65;2.58;;;;;;;;;;6206774;23;20407;-55
2022/06/23 06:47:02;;;;;;;5.80;2.55;;;;;;;;;;6208465;23;20535;-56
2022/06/23 06:49:29;;;;;;;7.60;2.90;;;;;;;;;;6205491;23;20610;-56
2022/06/23 06:51:54;;;;;;;8.18;3.03;;;;;;;;;;6181643;23;20027;-55
2022/06/23 06:54:22;;;;;;;14.88;3.10;;;;;;;;;;6205008;23;20008;-56
2022/06/23 06:56:59;;;;;;;8.05;3.88;;;;;;;;;;6208736;23;20417;-55
2022/06/23 06:59:24;;;;;;;4.70;3.05;;;;;;;;;;6206191;23;20020;-56
2022/06/23 07:01:53;;;;;;;6.70;3.42;;;;;;;;;;6208643;23;20012;-55
2022/06/23 07:04:25;;;;;;;9.68;4.15;;;;;;;;;;6207363;23;20012;-56
2022/06/23 07:06:55;;;;;;;9.93;4.10;;;;;;;;;;6205211;23;20017;-56
2022/06/23 07:09:28;;;;;;;6.95;3.85;;;;;;;;;;6209604;23;20009;-56
2022/06/23 07:11:58;;;;;;;7.78;4.78;;;;;;;;;;6208299;23;20043;-56
2022/06/23 07:14:24;;;;;;;7.72;3.60;;;;;;;;;;6208056;23;20038;-55
2022/06/23 07:16:49;;;;;;;6.47;3.88;;;;;;;;;;6177929;23;20029;-56
2022/06/23 07:19:22;;;;;;;8.50;3.67;;;;;;;;;;6208440;23;20090;-54
2022/06/23 07:21:52;;;;;;;13.98;4.25;;;;;;;;;;6202897;23;20024;-56
2022/06/23 07:24:38;;;;;;;11.65;4.45;;;;;;;;;;6204314;23;20015;-57
2022/06/23 07:27:11;;;;;;;6.75;4.10;;;;;;;;;;6131018;23;20020;-57
2022/06/23 07:29:55;;;;;;;5.65;3.80;;;;;;;;;;6202327;23;20412;-57
2022/06/23 07:32:36;;;;;;;7.38;3.35;;;;;;;;;;6208781;23;20497;-56
2022/06/23 07:35:16;;;;;;;6.03;3.40;;;;;;;;;;6207875;23;20020;-61
2022/06/23 07:37:45;;;;;;;5.22;3.70;;;;;;;;;;6201876;23;20021;-57
2022/06/23 07:40:11;;;;;;;;;;;;;;;;;;6210083;23;20047;-57
2022/06/23 07:42:50;;;;;;;4.47;3.08;;;;;;;;;;6203123;23;19903;-57
2022/06/23 07:45:24;;;;;;;9.50;2.90;;;;;;;;;;6204742;23;20357;-57
2022/06/23 07:47:50;;;;;;;6.90;2.28;;;;;;;;;;6207098;23;20448;-57
2022/06/23 07:50:16;;;;;;;6.03;2.30;;;;;;;;;;6204275;23;20012;-58
2022/06/23 07:52:42;;;;;;;3.75;2.10;;;;;;;;;;6203945;23;20016;-56
2022/06/23 07:55:09;;;;;;;3.10;2.03;;;;;;;;;;6207405;23;20328;-54
2022/06/23 07:57:35;;;;;;;2.95;2.40;;;;;;;;;;6204935;23;20558;-56
2022/06/23 08:00:03;;;;;;;3.17;2.08;;;;;;;;;;6208712;23;20013;-57
2022/06/23 08:02:32;;;;;;;5.63;2.20;;;;;;;;;;6204770;23;20017;-57
2022/06/23 08:05:00;;;;;;;2.20;1.95;;;;;;;;;;6206353;23;20008;-57
2022/06/23 08:07:26;;;;;;;2.72;1.70;;;;;;;;;;6201148;23;20064;-57
2022/06/23 08:10:09;;;;;;;5.13;1.92;;;;;;;;;;6202740;23;20020;-57
2022/06/23 08:12:55;;;;;;;7.72;2.47;;;;;;;;;;6197554;23;20017;-58
2022/06/23 08:18:19;;;;;;;5.47;2.20;;;;;;;;;;6169213;23;20088;-57
2022/06/23 08:20:47;;;;;;;4.57;1.63;;;;;;;;;;6174437;23;20025;-57
2022/06/23 08:23:13;;;;;;;3.85;1.30;;;;;;;;;;6168756;23;20088;-57
2022/06/23 08:25:40;;;;;;;2.53;1.40;;;;;;;;;;6170232;23;20013;-57
2022/06/23 08:28:05;;;;;;;2.67;1.60;;;;;;;;;;6170194;23;20045;-58
2022/06/23 08:30:32;;;;;;;3.92;2.65;;;;;;;;;;6170655;23;20024;-58
2022/06/23 08:32:58;;;;;;;6.50;1.65;;;;;;;;;;6151276;23;20037;-58
2022/06/23 08:35:27;;;;;;;3.05;1.42;;;;;;;;;;6165685;23;20033;-58
2022/06/23 08:37:55;;;;;;;2.25;1.10;;;;;;;;;;6173866;23;20013;-57
2022/06/23 08:40:29;;;;;;;2.25;1.45;;;;;;;;;;6174807;23;20013;-58
2022/06/23 08:42:57;;;;;;;4.35;1.13;;;;;;;;;;6180060;23;20578;-57
2022/06/23 08:45:29;;;;;;;2.25;1.25;;;;;;;;;;6169982;23;20017;-57
2022/06/23 08:47:54;;;;;;;6.55;1.30;;;;;;;;;;6180074;23;20017;-58
2022/06/23 08:50:31;;;;;;;2.30;1.40;;;;;;;;;;6176205;23;20032;-57
2022/06/23 08:53:02;;;;;;;2.33;1.30;;;;;;;;;;6175810;23;20451;-57
2022/06/23 08:55:31;;;;;;;2.17;1.48;;;;;;;;;;6170615;23;20333;-56
2022/06/23 08:57:56;;;;;;;3.42;1.23;;;;;;;;;;6168592;23;20013;-58
2022/06/23 09:00:28;;;;;;;3.57;1.27;;;;;;;;;;6173895;23;20017;-58
2022/06/23 09:03:16;;;;;;;3.88;0.98;;;;;;;;;;6181525;23;20318;-57
2022/06/23 09:05:43;;;;;;;2.65;1.52;;;;;;;;;;6174150;23;20013;-58
2022/06/23 09:08:12;;;;;;;2.90;1.42;;;;;;;;;;6181203;23;20439;-57
2022/06/23 09:10:55;;;;;;;1.70;1.17;;;;;;;;;;6178493;23;20040;-58
2022/06/23 09:13:30;;;;;;;2.55;1.60;;;;;;;;;;6151876;23;20021;-58
2022/06/23 09:15:55;;;;;;;3.90;1.90;;;;;;;;;;6081659;23;20025;-57
2022/06/23 09:18:27;;;;;;;3.10;1.97;;;;;;;;;;6161430;23;20022;-57
2022/06/23 09:20:59;;;;;;;2.97;1.77;;;;;;;;;;6158429;23;20656;-57
2022/06/23 09:23:36;;;;;;;7.85;2.00;;;;;;;;;;6110638;23;110814;-56
2022/06/23 09:26:20;;;;;;;3.75;1.50;;;;;;;;;;6170941;23;20350;-56
2022/06/23 09:28:54;;;;;;;3.53;1.30;;;;;;;;;;6168155;23;20024;-57
2022/06/23 09:31:22;;;;;;;1.92;0.90;;;;;;;;;;6170294;23;20041;-57
2022/06/23 09:33:59;;;;;;;6.35;1.88;;;;;;;;;;6169339;23;20013;-57
2022/06/23 09:36:28;;;;;;;3.45;1.02;;;;;;;;;;6169283;23;20080;-57
2022/06/23 10:00:45;;;;;;;3.75;1.83;;;;;;;;;;6276326;22;1526584;-57
2022/06/23 10:03:23;;;;;;;3.63;1.65;;;;;;;;;;6235338;22;20047;-56
2022/06/23 10:05:59;;;;;;;2.78;1.65;;;;;;;;;;6243260;22;20020;-58
2022/06/23 10:08:39;;;;;;;5.95;2.30;;;;;;;;;;6231454;22;20016;-58
2022/06/23 10:11:05;;;;;;;;;;;;;;;;;;6233170;22;20054;-59
2022/06/23 10:13:45;;;;;;;10.77;4.13;;;;;;;;;;6243436;22;19922;-59
2022/06/23 10:16:21;;;;;;;6.70;3.80;;;;;;;;;;6234115;22;20213;-58
2022/06/23 10:19:03;;;;;;;12.82;3.47;;;;;;;;;;6236781;22;20079;-58
2022/06/23 10:21:37;;;;;;;9.85;3.47;;;;;;;;;;6230216;22;20540;-59
2022/06/23 10:24:13;;;;;;;5.75;2.53;;;;;;;;;;6240190;22;20044;-58
2022/06/23 10:26:55;;;;;;;3.60;2.58;;;;;;;;;;6236935;22;20352;-58
2022/06/23 10:29:32;;;;;;;7.53;2.97;;;;;;;;;;6240459;22;20645;-58
2022/06/23 10:32:17;;;;;;;7.60;2.95;;;;;;;;;;6194853;22;303188;-59
2022/06/23 10:34:51;;;;;;;7.22;2.53;;;;;;;;;;6199111;23;20035;-57
2022/06/23 10:52:40;;;;;;;5.35;2.60;;;;;;;;;;6117985;23;20108;-58
2022/06/23 10:55:24;;;;;;;4.75;2.50;;;;;;;;;;6116424;23;23729;-51
2022/06/23 10:58:00;;;;;;;6.35;2.28;;;;;;;;;;6121841;23;98879;-58
2022/06/23 11:00:31;;;;;;;3.58;2.63;;;;;;;;;;6096807;23;20478;-58
2022/06/23 11:03:12;;;;;;;6.93;2.28;;;;;;;;;;6122409;23;20022;-57
2022/06/23 11:05:49;;;;;;;4.60;2.53;;;;;;;;;;6113729;23;20033;-58
2022/06/23 11:08:30;;;;;;;6.10;3.67;;;;;;;;;;6119837;23;20025;-55
2022/06/23 11:11:05;;;;;;;7.18;2.60;;;;;;;;;;6126140;23;20557;-57
2022/06/23 11:13:37;;;;;;;8.68;2.70;;;;;;;;;;6102507;23;20032;-57
2022/06/23 11:16:06;;;;;;;4.70;2.65;;;;;;;;;;6104061;23;20076;-56
2022/06/23 11:18:43;;;;;;;4.10;2.20;;;;;;;;;;6112432;23;20337;-58
2022/06/23 11:21:23;;;;;;;4.47;2.40;;;;;;;;;;6125220;23;20045;-58
2022/06/23 11:23:55;;;;;;;7.55;2.60;;;;;;;;;;6139613;23;20022;-59
2022/06/23 11:26:30;;;;;;;6.13;2.55;;;;;;;;;;6112629;23;20092;-58
2022/06/23 11:29:10;;;;;;;3.13;2.30;;;;;;;;;;6127524;23;20102;-57
2022/06/23 11:31:39;;;;;;;5.78;2.95;;;;;;;;;;6116885;23;20076;-58
2022/06/23 11:34:16;;;;;;;8.70;3.78;;;;;;;;;;6121719;23;20026;-58
2022/06/23 11:36:50;;;;;;;5.90;3.83;;;;;;;;;;6121436;23;20045;-58
2022/06/23 11:39:26;;;;;;;8.13;3.22;;;;;;;;;;6115391;23;20159;-56
2022/06/23 11:42:01;;;;;;;6.97;3.03;;;;;;;;;;6113560;23;20364;-58
2022/06/23 11:44:37;;;;;;;7.78;3.13;;;;;;;;;;6114169;23;20081;-58
2022/06/23 11:47:08;;;;;;;6.18;2.72;;;;;;;;;;6125075;23;20058;-57
2022/06/23 11:49:40;;;;;;;6.00;3.00;;;;;;;;;;6109835;23;20084;-58
2022/06/23 11:52:13;;;;;;;5.45;3.13;;;;;;;;;;6136859;23;20018;-58
2022/06/23 11:54:45;;;;;;;5.45;3.20;;;;;;;;;;6114363;23;20028;-58
2022/06/23 11:57:18;;;;;;;5.07;2.95;;;;;;;;;;6140306;23;20021;-57
2022/06/23 11:59:54;;;;;;;9.10;3.25;;;;;;;;;;6138443;23;20021;-57
2022/06/23 12:02:21;;;;;;;3.97;2.75;;;;;;;;;;6136485;23;20056;-58
2022/06/23 12:04:55;;;;;;;7.30;2.83;;;;;;;;;;6143923;23;20021;-58
2022/06/23 12:07:39;;;;;;;8.50;3.28;;;;;;;;;;6111394;23;20021;-59
2022/06/23 12:10:09;;;;;;;7.10;3.35;;;;;;;;;;6141564;23;20081;-58
2022/06/23 12:12:36;;;;;;;5.57;3.10;;;;;;;;;;6134980;23;20017;-58
2022/06/23 12:15:04;;;;;;;8.32;3.03;;;;;;;;;;6143492;23;20467;-58
2022/06/23 12:17:33;;;;;;;7.53;3.20;;;;;;;;;;6135674;23;20026;-58
2022/06/23 12:20:04;;;;;;;4.68;2.53;;;;;;;;;;6113889;23;20616;-58
2022/06/23 12:22:34;;;;;;;8.90;2.85;;;;;;;;;;6127401;23;20025;-59
2022/06/23 12:25:00;;;;;;;;;;;;;;;;;;6117542;23;20021;-57
2022/06/23 12:27:30;;;;;;;5.82;2.80;;;;;;;;;;6144715;23;19920;-58
2022/06/23 12:29:59;;;;;;;6.75;3.05;;;;;;;;;;6141332;23;20026;-57
2022/06/23 12:32:26;;;;;;;;;;;;;;;;;;6141038;23;20515;-58
2022/06/23 12:34:58;;;;;;;4.47;2.90;;;;;;;;;;6133367;23;19920;-58
2022/06/23 12:37:29;;;;;;;4.35;3.25;;;;;;;;;;6111692;23;20603;-57
2022/06/23 12:39:58;;;;;;;6.55;3.35;;;;;;;;;;6137494;23;20022;-57
2022/06/23 12:42:30;;;;;;;7.07;3.42;;;;;;;;;;6136430;23;27699;-57
2022/06/23 12:45:08;;;;;;;8.93;3.28;;;;;;;;;;6132913;23;20628;-58
2022/06/23 12:47:41;;;;;;;5.72;2.92;;;;;;;;;;6114712;23;20048;-57
2022/06/23 12:50:16;;;;;;;7.65;3.50;;;;;;;;;;6139286;23;20017;-57
2022/06/23 12:52:48;;;;;;;9.35;3.75;;;;;;;;;;6107690;23;20021;-58
2022/06/23 12:55:23;;;;;;;11.75;3.20;;;;;;;;;;6141136;23;20049;-57
2022/06/23 12:57:58;;;;;;;8.18;3.85;;;;;;;;;;6136762;23;20045;-57
2022/06/23 13:00:40;;;;;;;9.68;3.20;;;;;;;;;;6139972;23;20018;-57
2022/06/23 13:03:13;;;;;;;7.90;4.60;;;;;;;;;;6142971;23;20022;-57
2022/06/23 13:05:46;;;;;;;7.00;3.10;;;;;;;;;;6127053;23;20355;-58
2022/06/23 13:08:19;;;;;;;7.38;3.60;;;;;;;;;;6126689;23;20025;-57
2022/06/23 13:10:49;;;;;;;10.07;4.18;;;;;;;;;;6123061;23;20087;-57
2022/06/23 13:13:18;;;;;;;3.35;2.95;;;;;;;;;;6122210;23;20018;-57
2022/06/23 13:15:46;;;;;;;8.63;3.55;;;;;;;;;;6146187;23;20049;-57
2022/06/23 13:18:19;;;;;;;6.28;3.90;;;;;;;;;;6137026;23;20032;-57
2022/06/23 13:20:49;;;;;;;6.03;4.78;;;;;;;;;;6137102;23;20032;-57
2022/06/23 13:23:17;;;;;;;6.45;3.80;;;;;;;;;;6094798;23;20527;-55
2022/06/23 13:25:45;;;;;;;9.30;4.28;;;;;;;;;;6139886;23;20033;-57
2022/06/23 13:28:19;;;;;;;7.75;4.32;;;;;;;;;;6134514;23;20451;-58
2022/06/23 13:30:47;;;;;;;9.00;4.07;;;;;;;;;;6139428;23;20025;-57
2022/06/23 13:33:17;;;;;;;6.10;4.65;;;;;;;;;;6134164;23;20029;-58
2022/06/23 13:35:46;;;;;;;11.95;5.78;;;;;;;;;;6138531;23;20377;-57
2022/06/23 13:38:19;;;;;;;13.93;5.63;;;;;;;;;;6132756;23;20526;-57
2022/06/23 13:40:48;;;;;;;15.25;5.68;;;;;;;;;;6132192;23;20122;-57
2022/06/23 13:43:18;;;;;;;9.00;6.30;;;;;;;;;;6132223;23;20021;-57
2022/06/23 13:45:49;;;;;;;13.27;6.18;;;;;;;;;;6116305;23;20088;-56
2022/06/23 13:48:19;;;;;;;9.98;6.15;;;;;;;;;;6142738;23;20029;-58
2022/06/23 13:50:48;;;;;;;9.70;5.78;;;;;;;;;;6141957;23;20029;-57
2022/06/23 13:53:14;;;;;;;;;;;;;;;;;;6143995;23;20077;-57
2022/06/23 13:55:45;;;;;;;9.40;6.47;;;;;;;;;;6141517;23;19920;-58
2022/06/23 13:58:17;;;;;;;10.65;6.68;;;;;;;;;;6143471;23;20025;-57
2022/06/23 14:00:46;;;;;;;12.52;6.78;;;;;;;;;;6139058;23;20018;-57
2022/06/23 14:03:17;;;;;;;11.38;6.82;;;;;;;;;;6146917;23;20014;-57
2022/06/23 14:05:46;;;;;;;9.48;6.75;;;;;;;;;;6141922;23;20017;-56
2022/06/23 14:08:16;;;;;;;9.32;7.28;;;;;;;;;;6138899;23;20017;-57
2022/06/23 14:10:42;;;;;;;;;;;;;;;;;;6143049;23;20014;-57
2022/06/23 14:13:14;;;;;;;10.10;6.68;;;;;;;;;;6112376;23;20277;-58
2022/06/23 14:15:45;;;;;;;13.50;7.57;;;;;;;;;;6134497;23;20198;-58
2022/06/23 14:18:14;;;;;;;13.40;7.65;;;;;;;;;;6145170;23;20045;-58
2022/06/23 14:20:43;;;;;;;12.52;7.35;;;;;;;;;;6134676;23;20393;-58
2022/06/23 14:23:14;;;;;;;12.07;7.65;;;;;;;;;;6134590;23;20033;-58
2022/06/23 14:25:42;;;;;;;11.55;6.30;;;;;;;;;;6068852;23;1226291;-58
2022/06/23 14:28:16;;;;;;;12.15;6.13;;;;;;;;;;6140232;23;20017;-58
2022/06/23 14:30:47;;;;;;;8.00;6.15;;;;;;;;;;6144230;23;20209;-58
2022/06/23 14:33:16;;;;;;;12.77;7.18;;;;;;;;;;6125772;23;29057;-58
2022/06/23 14:35:45;;;;;;;10.83;7.10;;;;;;;;;;6132905;23;20013;-58
2022/06/23 14:38:16;;;;;;;17.35;6.75;;;;;;;;;;6136264;23;20248;-58
2022/06/23 14:40:48;;;;;;;10.23;5.93;;;;;;;;;;6141490;23;20507;-58
2022/06/23 14:43:33;;;;;;;11.00;5.82;;;;;;;;;;6120690;23;20013;-58
2022/06/23 14:46:08;;;;;;;12.57;7.07;;;;;;;;;;6144668;23;20048;-58
2022/06/23 14:48:51;;;;;;;10.18;6.40;;;;;;;;;;6133769;23;20022;-58
2022/06/23 14:51:21;;;;;;;8.32;5.97;;;;;;;;;;6139780;23;20017;-58
2022/06/23 14:53:50;;;;;;;7.20;5.13;;;;;;;;;;6140491;23;20041;-58
2022/06/23 14:56:20;;;;;;;8.25;6.07;;;;;;;;;;6141289;23;20065;-58
2022/06/23 14:58:49;;;;;;;12.05;6.25;;;;;;;;;;6131436;23;20028;-58
2022/06/23 15:01:21;;;;;;;12.63;6.75;;;;;;;;;;6141585;23;20089;-58
2022/06/23 15:03:57;;;;;;;9.52;7.47;;;;;;;;;;6140030;23;20033;-58
2022/06/23 15:06:25;;;;;;;13.55;6.70;;;;;;;;;;6137998;23;20063;-56
2022/06/23 15:08:55;;;;;;;10.00;7.20;;;;;;;;;;6142378;23;20308;-57
2022/06/23 15:11:25;;;;;;;10.80;6.40;;;;;;;;;;6130793;23;20487;-58
2022/06/23 15:13:54;;;;;;;13.47;6.00;;;;;;;;;;6132869;23;20367;-58
2022/06/23 15:16:21;;;;;;;;;;;;;;;;;;6126482;23;20022;-58
2022/06/23 15:18:50;;;;;;;9.45;5.45;;;;;;;;;;6142157;23;19928;-58
2022/06/23 15:24:01;;;;;;;7.63;4.45;;;;;;;;;;6129103;23;19991;-58
2022/06/23 15:26:29;;;;;;;8.45;5.32;;;;;;;;;;6136722;23;20440;-58
2022/06/23 15:28:57;;;;;;;11.43;5.43;;;;;;;;;;6142268;23;20621;-58
2022/06/23 15:31:27;;;;;;;9.63;6.20;;;;;;;;;;6135634;23;20014;-54
2022/06/23 15:33:59;;;;;;;8.57;5.53;;;;;;;;;;6111037;23;20017;-58
2022/06/23 15:36:34;;;;;;;7.57;5.30;;;;;;;;;;6116451;23;20082;-57
2022/06/23 15:39:05;;;;;;;14.60;6.25;;;;;;;;;;6140368;23;20029;-57
2022/06/23 15:41:55;;;;;;;13.55;5.25;;;;;;;;;;6111617;23;20514;-57
2022/06/23 15:44:28;;;;;;;5.70;4.60;;;;;;;;;;6075341;23;20044;-57
2022/06/23 15:46:57;;;;;;;8.63;4.72;;;;;;;;;;6099380;23;20041;-57
2022/06/23 15:49:30;;;;;;;7.75;4.38;;;;;;;;;;6147397;23;20013;-55
2022/06/23 15:51:59;;;;;;;7.88;5.55;;;;;;;;;;6142212;23;20018;-58
2022/06/23 15:54:29;;;;;;;9.27;5.18;;;;;;;;;;6137772;23;20022;-57
2022/06/23 15:56:59;;;;;;;5.22;3.78;;;;;;;;;;6145391;23;20021;-58
2022/06/23 15:59:25;;;;;;;;;;;;;;;;;;6137294;23;20022;-59
2022/06/23 16:01:55;;;;;;;7.72;3.90;;;;;;;;;;6118112;23;20249;-58